Time;durP1;ratioP1;P1;durP2;ratioP2;P2;SDS_P1;SDS_P2;PMS_P1;PMS_P2;Temp;Humidity;BMP_temperature;BMP_pressure;BME280_temperature;BME280_humidity;BME280_pressure;Samples;Min_cycle;Max_cycle;Signal;HPM_P1;HPM_P2
2022/03/31 00:01:13;;;;;;;45.28;20.63;;;;;;;;;;6264832;28;20037;-64
2022/03/31 00:04:13;;;;;;;42.10;20.92;;;;;;;;;;6263294;28;20106;-65
2022/03/31 00:07:14;;;;;;;41.63;21.45;;;;;;;;;;6261439;28;20041;-64
2022/03/31 00:10:27;;;;;;;42.65;20.58;;;;;;;;;;6259532;28;20507;-63
2022/03/31 00:13:29;;;;;;;40.33;20.35;;;;;;;;;;6263011;28;20135;-64
2022/03/31 00:16:30;;;;;;;44.60;21.75;;;;;;;;;;6261490;28;20076;-65
2022/03/31 00:19:30;;;;;;;40.33;19.63;;;;;;;;;;6261688;28;20053;-63
2022/03/31 00:22:31;;;;;;;40.70;22.05;;;;;;;;;;6260407;28;20041;-65
2022/03/31 00:25:31;;;;;;;43.83;22.27;;;;;;;;;;6259822;28;20583;-64
2022/03/31 00:28:33;;;;;;;40.35;21.05;;;;;;;;;;6260784;28;20041;-65
2022/03/31 00:31:34;;;;;;;42.20;22.20;;;;;;;;;;6261955;28;20048;-66
2022/03/31 00:34:35;;;;;;;42.08;21.17;;;;;;;;;;6260791;28;20695;-65
2022/03/31 00:37:37;;;;;;;47.80;22.53;;;;;;;;;;6253885;28;20072;-64
2022/03/31 00:40:38;;;;;;;35.88;19.90;;;;;;;;;;6262510;28;20484;-64
2022/03/31 00:43:38;;;;;;;36.55;18.10;;;;;;;;;;6263437;28;20140;-64
2022/03/31 00:46:50;;;;;;;32.17;17.63;;;;;;;;;;6259634;28;20094;-64
2022/03/31 00:49:50;;;;;;;35.30;18.35;;;;;;;;;;6259973;28;20167;-64
2022/03/31 00:52:51;;;;;;;32.15;17.98;;;;;;;;;;6260934;28;20441;-64
2022/03/31 00:55:52;;;;;;;34.53;19.95;;;;;;;;;;6262035;28;20140;-65
2022/03/31 00:58:54;;;;;;;31.67;19.02;;;;;;;;;;6262794;28;20041;-62
2022/03/31 01:01:56;;;;;;;37.17;19.90;;;;;;;;;;6264137;28;20132;-65
2022/03/31 01:05:00;;;;;;;32.25;19.50;;;;;;;;;;6265911;28;20138;-65
2022/03/31 01:08:02;;;;;;;31.35;18.63;;;;;;;;;;6266066;28;20451;-64
2022/03/31 01:11:03;;;;;;;31.05;18.20;;;;;;;;;;6266753;28;20479;-63
2022/03/31 01:14:03;;;;;;;31.30;17.60;;;;;;;;;;6264825;28;20051;-62
2022/03/31 01:17:04;;;;;;;31.30;17.50;;;;;;;;;;6260989;28;20048;-64
2022/03/31 01:20:08;;;;;;;31.70;18.73;;;;;;;;;;6261575;28;20497;-65
2022/03/31 01:23:11;;;;;;;28.90;17.83;;;;;;;;;;6260314;28;20045;-65
2022/03/31 01:26:12;;;;;;;29.83;16.75;;;;;;;;;;6261364;28;20057;-63
2022/03/31 01:29:13;;;;;;;26.92;16.45;;;;;;;;;;6260438;28;20109;-62
2022/03/31 01:32:14;;;;;;;26.50;16.77;;;;;;;;;;6260409;28;20041;-66
2022/03/31 01:35:15;;;;;;;29.63;16.05;;;;;;;;;;6260737;28;20147;-65
2022/03/31 01:38:15;;;;;;;28.55;15.18;;;;;;;;;;6259566;28;20053;-63
2022/03/31 01:41:16;;;;;;;26.55;15.32;;;;;;;;;;6262063;28;20059;-61
2022/03/31 01:44:17;;;;;;;27.83;15.55;;;;;;;;;;6261207;28;20051;-61
2022/03/31 01:47:18;;;;;;;24.30;14.85;;;;;;;;;;6257481;28;20468;-62
2022/03/31 01:50:18;;;;;;;30.17;17.77;;;;;;;;;;6258537;28;20136;-61
2022/03/31 01:53:19;;;;;;;27.90;16.20;;;;;;;;;;6262515;28;20045;-65
2022/03/31 01:56:19;;;;;;;28.27;16.52;;;;;;;;;;6260764;28;20393;-65
2022/03/31 01:59:20;;;;;;;24.70;14.98;;;;;;;;;;6259511;28;20060;-61
2022/03/31 02:02:22;;;;;;;25.98;14.93;;;;;;;;;;6260579;28;20124;-64
2022/03/31 02:05:23;;;;;;;24.10;13.40;;;;;;;;;;6258708;28;20131;-64
2022/03/31 02:08:23;;;;;;;27.55;14.90;;;;;;;;;;6259023;28;20052;-64
2022/03/31 02:11:24;;;;;;;27.92;15.63;;;;;;;;;;6261255;28;20049;-63
2022/03/31 02:14:25;;;;;;;24.05;13.45;;;;;;;;;;6261313;28;20045;-65
2022/03/31 02:17:26;;;;;;;27.05;15.07;;;;;;;;;;6260331;28;20142;-66
2022/03/31 02:20:30;;;;;;;25.80;15.38;;;;;;;;;;6259453;28;20053;-65
2022/03/31 02:23:31;;;;;;;27.00;16.17;;;;;;;;;;6260061;28;20146;-65
2022/03/31 02:26:31;;;;;;;23.38;13.80;;;;;;;;;;6260628;28;20139;-62
2022/03/31 02:29:32;;;;;;;25.83;14.75;;;;;;;;;;6259822;28;20056;-61
2022/03/31 02:32:33;;;;;;;26.23;14.88;;;;;;;;;;6261037;28;20063;-64
2022/03/31 02:35:33;;;;;;;28.35;16.20;;;;;;;;;;6261832;28;20055;-64
2022/03/31 02:38:36;;;;;;;29.70;17.13;;;;;;;;;;6260571;28;20128;-64
2022/03/31 02:41:38;;;;;;;32.63;15.95;;;;;;;;;;6260840;28;20049;-65
2022/03/31 02:44:38;;;;;;;35.78;18.95;;;;;;;;;;6255006;28;20642;-64
2022/03/31 02:47:39;;;;;;;38.17;20.23;;;;;;;;;;6255270;28;20045;-61
2022/03/31 02:50:39;;;;;;;32.88;18.67;;;;;;;;;;6256557;28;20606;-65
2022/03/31 02:56:59;;;;;;;27.80;15.13;;;;;;;;;;6259988;28;20044;-65
2022/03/31 03:00:00;;;;;;;27.55;13.75;;;;;;;;;;6258112;28;20067;-64
2022/03/31 03:03:03;;;;;;;29.90;16.60;;;;;;;;;;6260821;28;20049;-63
2022/03/31 03:06:03;;;;;;;27.67;14.77;;;;;;;;;;6263932;28;20041;-64
2022/03/31 03:09:05;;;;;;;22.92;14.45;;;;;;;;;;6261305;28;20623;-63
2022/03/31 03:12:07;;;;;;;26.98;14.43;;;;;;;;;;6263895;28;20049;-63
2022/03/31 03:15:10;;;;;;;23.13;13.68;;;;;;;;;;6264973;28;20385;-65
2022/03/31 03:18:10;;;;;;;24.40;13.20;;;;;;;;;;6264650;28;20143;-64
2022/03/31 03:21:11;;;;;;;25.85;13.95;;;;;;;;;;6264448;28;20637;-62
2022/03/31 03:24:12;;;;;;;25.77;14.00;;;;;;;;;;6262173;28;20045;-64
2022/03/31 03:27:12;;;;;;;28.67;15.73;;;;;;;;;;6265738;28;20065;-64
2022/03/31 03:30:14;;;;;;;28.80;15.15;;;;;;;;;;6263528;28;20392;-63
2022/03/31 03:33:15;;;;;;;27.93;15.10;;;;;;;;;;6264305;28;20104;-64
2022/03/31 03:36:18;;;;;;;28.15;15.18;;;;;;;;;;6264088;28;20045;-62
2022/03/31 03:39:19;;;;;;;30.08;16.13;;;;;;;;;;6260695;28;20056;-62
2022/03/31 03:42:20;;;;;;;31.13;15.80;;;;;;;;;;6263529;28;20057;-62
2022/03/31 03:45:20;;;;;;;28.88;15.60;;;;;;;;;;6261586;28;20639;-62
2022/03/31 03:48:22;;;;;;;30.33;17.20;;;;;;;;;;6263571;28;20092;-63
2022/03/31 03:51:24;;;;;;;29.10;14.90;;;;;;;;;;6264249;28;20076;-62
2022/03/31 03:54:25;;;;;;;27.98;16.08;;;;;;;;;;6266437;28;20049;-65
2022/03/31 03:57:25;;;;;;;30.83;16.27;;;;;;;;;;6263889;28;20163;-65
2022/03/31 04:00:30;;;;;;;37.58;19.48;;;;;;;;;;6265662;28;20055;-62
2022/03/31 04:03:30;;;;;;;32.38;17.80;;;;;;;;;;6268040;28;20464;-64
2022/03/31 04:06:31;;;;;;;38.90;20.63;;;;;;;;;;6263905;28;20057;-63
2022/03/31 04:09:32;;;;;;;42.30;21.60;;;;;;;;;;6262458;28;20049;-64
2022/03/31 04:12:32;;;;;;;43.55;22.35;;;;;;;;;;6263708;28;20480;-62
2022/03/31 04:15:33;;;;;;;36.13;19.85;;;;;;;;;;6263578;28;20517;-64
2022/03/31 04:18:33;;;;;;;33.08;18.27;;;;;;;;;;6262378;28;20436;-62
2022/03/31 04:21:35;;;;;;;35.40;20.38;;;;;;;;;;6259848;28;20172;-62
2022/03/31 04:24:36;;;;;;;35.13;18.83;;;;;;;;;;6263442;28;20045;-60
2022/03/31 04:27:38;;;;;;;36.75;19.10;;;;;;;;;;6260716;28;20124;-63
2022/03/31 04:30:39;;;;;;;40.38;20.35;;;;;;;;;;6264059;28;20524;-63
2022/03/31 04:33:39;;;;;;;31.60;17.20;;;;;;;;;;6265580;28;20131;-62
2022/03/31 04:36:40;;;;;;;25.95;14.75;;;;;;;;;;6262856;28;20073;-62
2022/03/31 04:39:41;;;;;;;28.40;14.13;;;;;;;;;;6263826;28;20068;-61
2022/03/31 04:42:42;;;;;;;25.15;14.63;;;;;;;;;;6264936;28;20114;-61
2022/03/31 04:45:43;;;;;;;25.95;15.02;;;;;;;;;;6263867;28;20134;-62
2022/03/31 04:48:44;;;;;;;26.40;14.68;;;;;;;;;;6265684;28;20056;-65
2022/03/31 04:51:44;;;;;;;20.88;13.30;;;;;;;;;;6263725;28;20139;-64
2022/03/31 04:54:46;;;;;;;22.17;12.57;;;;;;;;;;6262423;28;20110;-61
2022/03/31 04:57:46;;;;;;;18.10;10.52;;;;;;;;;;6262157;28;20136;-64
2022/03/31 05:00:47;;;;;;;20.38;11.27;;;;;;;;;;6265168;28;20044;-65
2022/03/31 05:03:47;;;;;;;20.25;12.10;;;;;;;;;;6265912;28;20148;-63
2022/03/31 05:06:48;;;;;;;20.75;12.52;;;;;;;;;;6264064;28;20040;-64
2022/03/31 05:09:49;;;;;;;27.10;13.35;;;;;;;;;;6266130;28;20528;-65
2022/03/31 05:12:49;;;;;;;27.77;14.10;;;;;;;;;;6266118;28;20404;-63
2022/03/31 05:15:50;;;;;;;29.60;14.93;;;;;;;;;;6267266;28;20190;-65
2022/03/31 05:18:51;;;;;;;26.45;13.82;;;;;;;;;;6264529;28;20044;-64
2022/03/31 05:21:52;;;;;;;21.98;12.82;;;;;;;;;;6265148;28;20120;-65
2022/03/31 05:24:52;;;;;;;25.00;13.88;;;;;;;;;;6261841;28;20081;-62
2022/03/31 05:27:53;;;;;;;27.92;13.70;;;;;;;;;;6262428;28;20044;-63
2022/03/31 05:30:54;;;;;;;86.65;28.02;;;;;;;;;;6258126;28;20041;-64
2022/03/31 05:33:54;;;;;;;78.25;24.73;;;;;;;;;;6263978;28;20041;-62
2022/03/31 05:36:55;;;;;;;36.97;16.15;;;;;;;;;;6261798;28;20076;-61
2022/03/31 05:39:55;;;;;;;26.85;15.32;;;;;;;;;;6265456;28;20116;-63
2022/03/31 05:42:56;;;;;;;29.23;16.40;;;;;;;;;;6263298;28;20049;-61
2022/03/31 05:45:57;;;;;;;19.95;12.50;;;;;;;;;;6264515;28;20555;-61
2022/03/31 05:48:58;;;;;;;22.05;13.63;;;;;;;;;;6260559;28;20065;-62
2022/03/31 05:51:59;;;;;;;25.42;13.98;;;;;;;;;;6260718;28;20463;-62
2022/03/31 05:55:00;;;;;;;24.80;14.75;;;;;;;;;;6260006;28;20047;-61
2022/03/31 05:58:00;;;;;;;27.45;14.05;;;;;;;;;;6257485;28;20103;-63
2022/03/31 06:01:02;;;;;;;31.17;15.50;;;;;;;;;;6259967;28;20041;-62
2022/03/31 06:04:03;;;;;;;33.58;16.23;;;;;;;;;;6261117;28;20036;-61
2022/03/31 06:07:05;;;;;;;35.30;16.17;;;;;;;;;;6256188;28;20060;-65
2022/03/31 06:10:06;;;;;;;22.42;13.07;;;;;;;;;;6259910;28;20049;-65
2022/03/31 06:13:07;;;;;;;28.25;14.02;;;;;;;;;;6262937;28;20080;-63
2022/03/31 06:16:10;;;;;;;20.52;12.13;;;;;;;;;;6265216;28;20041;-65
2022/03/31 06:19:11;;;;;;;24.52;13.20;;;;;;;;;;6259450;28;20653;-61
2022/03/31 06:22:12;;;;;;;37.70;14.10;;;;;;;;;;6260073;28;20124;-62
2022/03/31 06:25:14;;;;;;;29.65;14.70;;;;;;;;;;6259471;28;20503;-62
2022/03/31 06:28:14;;;;;;;20.90;12.70;;;;;;;;;;6261621;28;20048;-63
2022/03/31 06:31:15;;;;;;;25.17;14.20;;;;;;;;;;6264896;28;20102;-63
2022/03/31 06:34:15;;;;;;;27.10;15.18;;;;;;;;;;6261539;28;20535;-70
2022/03/31 06:37:17;;;;;;;27.92;15.15;;;;;;;;;;6256734;28;20476;-62
2022/03/31 06:40:18;;;;;;;25.33;14.77;;;;;;;;;;6264060;28;20041;-60
2022/03/31 06:43:18;;;;;;;27.38;15.10;;;;;;;;;;6263996;28;20060;-61
2022/03/31 06:46:19;;;;;;;28.05;14.93;;;;;;;;;;6260761;28;20461;-64
2022/03/31 06:49:21;;;;;;;22.60;13.95;;;;;;;;;;6260770;28;20415;-63
2022/03/31 06:52:21;;;;;;;21.80;12.93;;;;;;;;;;6264217;28;20140;-64
2022/03/31 06:55:22;;;;;;;23.90;14.30;;;;;;;;;;6263849;28;20045;-64
2022/03/31 06:58:27;;;;;;;24.30;13.80;;;;;;;;;;6261812;28;20052;-63
2022/03/31 07:01:28;;;;;;;21.98;12.93;;;;;;;;;;6262889;28;20048;-64
2022/03/31 07:04:28;;;;;;;20.80;12.40;;;;;;;;;;6263744;28;20068;-64
2022/03/31 07:07:29;;;;;;;22.95;13.23;;;;;;;;;;6263014;28;20049;-63
2022/03/31 07:10:30;;;;;;;17.50;11.10;;;;;;;;;;6263675;28;20045;-64
2022/03/31 07:13:31;;;;;;;24.88;13.65;;;;;;;;;;6264937;28;20056;-64
2022/03/31 07:16:32;;;;;;;22.65;12.70;;;;;;;;;;6263287;28;20146;-64
2022/03/31 07:19:33;;;;;;;26.13;14.23;;;;;;;;;;6262935;28;20253;-64
2022/03/31 07:22:33;;;;;;;25.25;13.57;;;;;;;;;;6264549;28;20508;-64
2022/03/31 07:25:34;;;;;;;20.27;12.77;;;;;;;;;;6263038;28;20136;-64
2022/03/31 07:28:34;;;;;;;21.40;12.00;;;;;;;;;;6260773;28;20045;-64
2022/03/31 07:31:35;;;;;;;19.42;11.85;;;;;;;;;;6263301;28;20122;-64
2022/03/31 07:34:36;;;;;;;22.52;12.82;;;;;;;;;;6267660;28;20124;-64
2022/03/31 07:37:36;;;;;;;20.63;12.18;;;;;;;;;;6265624;28;20148;-65
2022/03/31 07:40:39;;;;;;;20.48;12.48;;;;;;;;;;6269083;28;20040;-64
2022/03/31 07:43:39;;;;;;;;;;;;;;;;;;6268901;28;20057;-64
2022/03/31 07:46:40;;;;;;;23.85;12.75;;;;;;;;;;6267441;28;20019;-64
2022/03/31 07:49:41;;;;;;;24.15;14.00;;;;;;;;;;6266323;28;20052;-64
2022/03/31 07:52:42;;;;;;;21.20;12.48;;;;;;;;;;6268844;28;20045;-64
2022/03/31 07:55:44;;;;;;;20.48;12.25;;;;;;;;;;6268262;28;20080;-64
2022/03/31 07:58:44;;;;;;;23.15;13.10;;;;;;;;;;6265900;28;20476;-64
2022/03/31 08:01:45;;;;;;;22.27;13.30;;;;;;;;;;6267343;28;20029;-64
2022/03/31 08:04:45;;;;;;;21.83;13.30;;;;;;;;;;6268552;28;20072;-64
2022/03/31 08:07:46;;;;;;;23.65;13.68;;;;;;;;;;6266952;28;20047;-65
2022/03/31 08:10:49;;;;;;;23.85;14.45;;;;;;;;;;6267569;28;20144;-63
2022/03/31 08:13:50;;;;;;;24.48;13.65;;;;;;;;;;6265626;28;20095;-64
2022/03/31 08:16:51;;;;;;;23.00;14.00;;;;;;;;;;6264260;28;20048;-64
2022/03/31 08:19:52;;;;;;;23.30;13.60;;;;;;;;;;6265639;28;20063;-62
2022/03/31 08:22:52;;;;;;;21.92;12.65;;;;;;;;;;6267990;28;20592;-65
2022/03/31 08:25:54;;;;;;;26.33;13.43;;;;;;;;;;6266953;28;20049;-64
2022/03/31 08:28:55;;;;;;;26.60;14.80;;;;;;;;;;6266314;28;20462;-65
2022/03/31 08:31:56;;;;;;;28.10;16.45;;;;;;;;;;6267995;28;20053;-65
2022/03/31 08:34:56;;;;;;;29.80;17.55;;;;;;;;;;6266802;28;20488;-65
2022/03/31 08:37:57;;;;;;;30.25;16.73;;;;;;;;;;6264047;28;20049;-65
2022/03/31 08:40:58;;;;;;;35.10;18.98;;;;;;;;;;6264490;28;20127;-66
2022/03/31 08:43:59;;;;;;;63.00;25.97;;;;;;;;;;6266783;28;20474;-65
2022/03/31 08:46:59;;;;;;;78.07;27.17;;;;;;;;;;6263288;28;20088;-66
2022/03/31 08:50:00;;;;;;;86.18;27.17;;;;;;;;;;6265412;28;20045;-63
2022/03/31 08:53:02;;;;;;;71.70;22.30;;;;;;;;;;6266921;28;20131;-66
2022/03/31 08:56:04;;;;;;;40.30;18.98;;;;;;;;;;6265589;28;20095;-63
2022/03/31 08:59:07;;;;;;;31.88;17.83;;;;;;;;;;6264843;28;20083;-64
2022/03/31 09:02:09;;;;;;;27.77;16.48;;;;;;;;;;6265111;28;20067;-65
2022/03/31 09:05:10;;;;;;;29.88;16.63;;;;;;;;;;6264185;28;20053;-65
2022/03/31 09:08:12;;;;;;;55.92;22.70;;;;;;;;;;6263660;28;20064;-64
2022/03/31 09:11:13;;;;;;;74.63;26.88;;;;;;;;;;6266771;28;20048;-65
2022/03/31 09:14:13;;;;;;;87.35;29.05;;;;;;;;;;6265213;28;20052;-65
2022/03/31 09:17:15;;;;;;;46.88;20.38;;;;;;;;;;6264361;28;20057;-65
2022/03/31 09:20:16;;;;;;;45.65;20.52;;;;;;;;;;6265928;28;20045;-65
2022/03/31 09:23:18;;;;;;;41.17;19.75;;;;;;;;;;6265551;28;20453;-66
2022/03/31 09:26:19;;;;;;;37.85;18.35;;;;;;;;;;6255456;28;20114;-66
2022/03/31 09:29:23;;;;;;;46.55;21.85;;;;;;;;;;6256417;28;20041;-64
2022/03/31 09:32:24;;;;;;;35.05;18.15;;;;;;;;;;6259778;28;20451;-64
2022/03/31 09:35:25;;;;;;;33.70;18.05;;;;;;;;;;6255763;28;20124;-62
2022/03/31 09:38:26;;;;;;;31.10;16.95;;;;;;;;;;6264824;28;20927;-61
2022/03/31 09:41:31;;;;;;;38.40;19.30;;;;;;;;;;6251344;28;20081;-59
2022/03/31 09:44:32;;;;;;;34.67;17.65;;;;;;;;;;6262376;28;20083;-59
2022/03/31 09:47:42;;;;;;;43.97;21.17;;;;;;;;;;6258856;28;20050;-64
2022/03/31 09:50:44;;;;;;;38.45;20.20;;;;;;;;;;6258927;28;20055;-64
2022/03/31 09:53:47;;;;;;;38.42;19.75;;;;;;;;;;6261111;28;20041;-64
2022/03/31 09:56:48;;;;;;;37.50;19.75;;;;;;;;;;6258405;28;20048;-65
2022/03/31 09:59:52;;;;;;;39.73;19.60;;;;;;;;;;6257938;28;20044;-64
2022/03/31 10:02:53;;;;;;;44.03;21.15;;;;;;;;;;6260045;28;20088;-63
2022/03/31 10:05:54;;;;;;;40.25;20.15;;;;;;;;;;6261171;28;20041;-65
2022/03/31 10:08:57;;;;;;;39.95;19.15;;;;;;;;;;6257686;28;20722;-64
2022/03/31 10:12:05;;;;;;;41.90;19.98;;;;;;;;;;6260230;28;20045;-65
2022/03/31 10:15:09;;;;;;;42.28;20.45;;;;;;;;;;6265548;28;20048;-65
2022/03/31 10:18:14;;;;;;;39.05;20.23;;;;;;;;;;6264990;28;20068;-65
2022/03/31 10:21:30;;;;;;;39.45;20.08;;;;;;;;;;6266776;28;20485;-64
2022/03/31 10:24:46;;;;;;;32.40;17.17;;;;;;;;;;6266500;28;20048;-64
2022/03/31 10:27:49;;;;;;;33.22;18.17;;;;;;;;;;6267173;28;20053;-64
2022/03/31 10:31:01;;;;;;;33.83;19.00;;;;;;;;;;6263188;28;20067;-65
2022/03/31 10:34:04;;;;;;;32.83;17.40;;;;;;;;;;6264318;28;20132;-64
2022/03/31 10:37:06;;;;;;;31.85;16.50;;;;;;;;;;6264031;28;20056;-65
2022/03/31 10:40:09;;;;;;;33.65;17.38;;;;;;;;;;6265021;28;20092;-65
2022/03/31 10:43:22;;;;;;;34.28;17.75;;;;;;;;;;6261742;28;20045;-65
2022/03/31 10:46:25;;;;;;;31.75;17.73;;;;;;;;;;6262120;28;20045;-65
2022/03/31 10:49:26;;;;;;;31.55;16.70;;;;;;;;;;6262699;28;20144;-65
2022/03/31 10:52:28;;;;;;;32.03;16.65;;;;;;;;;;6264508;28;20052;-64
2022/03/31 10:55:35;;;;;;;28.42;15.65;;;;;;;;;;6262964;28;20404;-65
2022/03/31 10:58:36;;;;;;;34.28;17.58;;;;;;;;;;6264663;28;20474;-65
2022/03/31 11:01:38;;;;;;;37.20;18.25;;;;;;;;;;6264160;28;20527;-67
2022/03/31 11:04:43;;;;;;;32.88;17.40;;;;;;;;;;6264549;28;20069;-68
2022/03/31 11:07:44;;;;;;;34.28;17.98;;;;;;;;;;6262638;28;20049;-63
2022/03/31 11:10:52;;;;;;;36.35;18.80;;;;;;;;;;6262930;28;20091;-66
2022/03/31 11:13:55;;;;;;;35.08;18.45;;;;;;;;;;6261087;28;22027;-66
2022/03/31 11:16:57;;;;;;;32.60;17.98;;;;;;;;;;6261636;28;20424;-65
2022/03/31 11:20:03;;;;;;;32.97;18.98;;;;;;;;;;6262380;28;20049;-66
2022/03/31 11:23:06;;;;;;;33.17;19.17;;;;;;;;;;6260829;28;20056;-64
2022/03/31 11:26:07;;;;;;;38.55;20.27;;;;;;;;;;6260121;28;20045;-64
2022/03/31 11:29:12;;;;;;;33.78;17.88;;;;;;;;;;6263086;28;20049;-65
2022/03/31 11:32:12;;;;;;;35.40;19.27;;;;;;;;;;6263054;28;20053;-66
2022/03/31 11:35:19;;;;;;;32.55;17.83;;;;;;;;;;6262880;28;20049;-65
2022/03/31 11:38:19;;;;;;;35.35;20.42;;;;;;;;;;6264694;28;20522;-65
2022/03/31 11:41:20;;;;;;;38.28;19.13;;;;;;;;;;6263136;28;20144;-66
2022/03/31 11:44:22;;;;;;;46.03;23.25;;;;;;;;;;6263261;28;20045;-67
2022/03/31 11:47:24;;;;;;;41.25;20.95;;;;;;;;;;6262768;28;20119;-65
2022/03/31 11:50:26;;;;;;;40.05;21.92;;;;;;;;;;6260153;28;20052;-66
2022/03/31 11:53:29;;;;;;;37.60;19.52;;;;;;;;;;6262023;28;20578;-66
2022/03/31 11:56:30;;;;;;;38.50;20.25;;;;;;;;;;6262767;28;20056;-66
2022/03/31 11:59:31;;;;;;;40.08;21.77;;;;;;;;;;6262548;28;20057;-67
2022/03/31 12:02:32;;;;;;;42.93;20.77;;;;;;;;;;6263011;28;20119;-66
2022/03/31 12:05:33;;;;;;;48.45;21.25;;;;;;;;;;6258969;28;20068;-65
2022/03/31 12:08:35;;;;;;;45.13;21.67;;;;;;;;;;6261924;28;20106;-64
2022/03/31 12:11:36;;;;;;;47.63;24.02;;;;;;;;;;6262219;28;20049;-63
2022/03/31 12:14:38;;;;;;;46.78;22.77;;;;;;;;;;6261398;28;20179;-66
2022/03/31 12:17:39;;;;;;;40.90;20.48;;;;;;;;;;6261605;28;20068;-66
2022/03/31 12:20:40;;;;;;;45.08;22.88;;;;;;;;;;6260903;28;20140;-66
2022/03/31 12:23:45;;;;;;;40.72;22.40;;;;;;;;;;6258665;28;20049;-67
2022/03/31 12:26:56;;;;;;;48.10;24.23;;;;;;;;;;6260973;28;20040;-66
2022/03/31 12:30:03;;;;;;;45.72;23.20;;;;;;;;;;6260891;28;20126;-65
2022/03/31 12:33:25;;;;;;;41.22;20.58;;;;;;;;;;6260343;28;20502;-66
2022/03/31 12:36:32;;;;;;;43.07;22.00;;;;;;;;;;6260422;28;20060;-66
2022/03/31 12:39:40;;;;;;;39.00;20.48;;;;;;;;;;6260599;28;20421;-65
2022/03/31 12:42:55;;;;;;;39.80;20.13;;;;;;;;;;6262296;28;20506;-65
2022/03/31 12:45:56;;;;;;;39.13;19.88;;;;;;;;;;6261071;28;20045;-65
2022/03/31 12:49:05;;;;;;;33.72;17.25;;;;;;;;;;6260070;28;20685;-66
2022/03/31 12:52:17;;;;;;;33.22;17.30;;;;;;;;;;6263382;28;20052;-65
2022/03/31 12:55:18;;;;;;;30.48;16.42;;;;;;;;;;6262217;28;20045;-65
2022/03/31 12:58:20;;;;;;;28.80;16.73;;;;;;;;;;6260632;28;20155;-66
2022/03/31 13:01:21;;;;;;;31.00;16.63;;;;;;;;;;6257408;28;20076;-66
2022/03/31 13:04:21;;;;;;;34.30;17.23;;;;;;;;;;6263538;28;20539;-66
2022/03/31 13:07:27;;;;;;;33.63;17.52;;;;;;;;;;6265985;28;20553;-66
2022/03/31 13:10:28;;;;;;;48.03;20.02;;;;;;;;;;6265250;28;20139;-63
2022/03/31 13:13:29;;;;;;;34.83;16.52;;;;;;;;;;6265833;28;20088;-66
2022/03/31 13:16:30;;;;;;;28.58;14.90;;;;;;;;;;6261175;28;20045;-66
2022/03/31 13:19:31;;;;;;;30.27;15.60;;;;;;;;;;6260155;28;20929;-67
2022/03/31 13:22:33;;;;;;;31.00;15.70;;;;;;;;;;6259503;28;20048;-65
2022/03/31 13:25:34;;;;;;;26.73;15.20;;;;;;;;;;6260125;28;20048;-65
2022/03/31 13:28:36;;;;;;;32.70;16.52;;;;;;;;;;6262872;28;20138;-67
2022/03/31 13:31:40;;;;;;;36.95;20.33;;;;;;;;;;6261059;28;20052;-66
2022/03/31 13:34:41;;;;;;;29.45;15.35;;;;;;;;;;6265613;28;20124;-66
2022/03/31 13:37:42;;;;;;;41.85;21.48;;;;;;;;;;6266073;28;20068;-65
2022/03/31 13:40:43;;;;;;;33.45;17.55;;;;;;;;;;6264673;28;20049;-66
2022/03/31 13:43:44;;;;;;;33.75;16.42;;;;;;;;;;6266118;28;20087;-66
2022/03/31 13:46:45;;;;;;;29.50;15.30;;;;;;;;;;6265397;28;20080;-64
2022/03/31 13:49:46;;;;;;;28.30;16.53;;;;;;;;;;6259228;28;20511;-66
2022/03/31 13:53:43;;;;;;;41.20;19.65;;;;;;;;;;6259763;28;20041;-64
2022/03/31 13:56:08;;;;;;;43.90;21.02;;;;;;;;;;6260322;28;20053;-64
2022/03/31 14:02:28;;;;;;;38.33;19.30;;;;;;;;;;6252179;28;20037;-64
2022/03/31 14:05:29;;;;;;;31.45;16.85;;;;;;;;;;6258532;28;20250;-63
2022/03/31 14:08:31;;;;;;;31.83;16.75;;;;;;;;;;6261488;28;20049;-65
2022/03/31 14:11:34;;;;;;;30.63;16.13;;;;;;;;;;6256827;28;20057;-62
2022/03/31 14:14:35;;;;;;;27.42;14.13;;;;;;;;;;6252200;28;20094;-63
2022/03/31 14:17:36;;;;;;;29.33;14.93;;;;;;;;;;6262463;28;20037;-63
2022/03/31 14:20:37;;;;;;;28.73;15.30;;;;;;;;;;6258448;28;20052;-61
2022/03/31 14:23:39;;;;;;;31.30;16.00;;;;;;;;;;6258155;28;20480;-62
2022/03/31 14:26:41;;;;;;;28.85;14.93;;;;;;;;;;6262616;28;20041;-65
2022/03/31 14:29:44;;;;;;;29.02;14.27;;;;;;;;;;6261994;28;20060;-65
2022/03/31 14:32:45;;;;;;;28.98;14.43;;;;;;;;;;6263193;28;20137;-66
2022/03/31 14:35:47;;;;;;;25.38;14.00;;;;;;;;;;6263774;28;20450;-63
2022/03/31 14:38:49;;;;;;;28.85;14.93;;;;;;;;;;6263392;28;20057;-65
2022/03/31 14:41:50;;;;;;;25.27;13.35;;;;;;;;;;6262005;28;20041;-65
2022/03/31 14:44:51;;;;;;;28.77;14.38;;;;;;;;;;6260393;28;20056;-65
2022/03/31 14:47:52;;;;;;;27.85;15.35;;;;;;;;;;6259902;28;20504;-66
2022/03/31 14:50:52;;;;;;;28.98;16.00;;;;;;;;;;6230250;28;20099;-62
2022/03/31 14:53:54;;;;;;;28.88;16.55;;;;;;;;;;6239911;28;20619;-64
2022/03/31 14:56:55;;;;;;;32.33;18.50;;;;;;;;;;6241624;28;20524;-63
2022/03/31 14:59:56;;;;;;;31.45;17.42;;;;;;;;;;6248334;28;20091;-61
2022/03/31 15:02:57;;;;;;;28.33;15.53;;;;;;;;;;6247761;28;20073;-62
2022/03/31 15:05:58;;;;;;;22.27;12.73;;;;;;;;;;6248065;28;20053;-65
2022/03/31 15:09:00;;;;;;;28.63;14.73;;;;;;;;;;6246863;28;20147;-67
2022/03/31 15:15:20;;;;;;;33.58;17.02;;;;;;;;;;6249704;28;20041;-66
2022/03/31 15:18:22;;;;;;;29.85;13.45;;;;;;;;;;6251592;28;20411;-63
2022/03/31 15:21:23;;;;;;;31.50;14.50;;;;;;;;;;6248996;28;20446;-64
2022/03/31 15:24:25;;;;;;;26.45;12.98;;;;;;;;;;6247194;28;20045;-63
2022/03/31 15:27:26;;;;;;;25.63;13.25;;;;;;;;;;6250274;28;20489;-65
2022/03/31 15:30:26;;;;;;;26.17;13.35;;;;;;;;;;6248703;28;20047;-64
2022/03/31 15:33:27;;;;;;;29.83;14.45;;;;;;;;;;6244999;28;20041;-65
2022/03/31 15:36:28;;;;;;;42.10;17.83;;;;;;;;;;6249298;28;20107;-63
2022/03/31 15:39:31;;;;;;;44.83;18.10;;;;;;;;;;6252385;28;20076;-63
2022/03/31 15:42:31;;;;;;;29.33;14.65;;;;;;;;;;6249146;28;20081;-63
2022/03/31 15:45:32;;;;;;;27.17;13.88;;;;;;;;;;6247725;28;20493;-64
2022/03/31 15:48:33;;;;;;;29.60;14.75;;;;;;;;;;6246593;28;20049;-63
2022/03/31 15:51:34;;;;;;;29.27;14.80;;;;;;;;;;6244607;28;20049;-63
2022/03/31 15:54:34;;;;;;;25.92;14.82;;;;;;;;;;6241444;28;20645;-63
2022/03/31 15:57:35;;;;;;;28.77;15.52;;;;;;;;;;6249398;28;20051;-64
2022/03/31 16:00:36;;;;;;;24.67;14.13;;;;;;;;;;6251659;28;20127;-63
2022/03/31 16:03:37;;;;;;;23.77;13.73;;;;;;;;;;6245842;28;20510;-62
2022/03/31 16:06:37;;;;;;;24.67;14.35;;;;;;;;;;6251401;28;20057;-63
2022/03/31 16:09:38;;;;;;;30.65;16.55;;;;;;;;;;6250335;28;20053;-62
2022/03/31 16:12:39;;;;;;;33.55;18.55;;;;;;;;;;6246657;28;20044;-63
2022/03/31 16:15:40;;;;;;;29.77;15.65;;;;;;;;;;6248820;28;20168;-62
2022/03/31 16:18:41;;;;;;;26.70;13.98;;;;;;;;;;6242728;28;20790;-62
2022/03/31 16:21:42;;;;;;;27.35;15.02;;;;;;;;;;6245996;28;20809;-63
2022/03/31 16:24:42;;;;;;;27.65;16.10;;;;;;;;;;6239128;28;20106;-62
2022/03/31 16:27:43;;;;;;;25.27;13.68;;;;;;;;;;6245397;28;20075;-63
2022/03/31 16:30:44;;;;;;;28.92;14.45;;;;;;;;;;6242169;28;20064;-62
2022/03/31 16:33:46;;;;;;;25.80;15.00;;;;;;;;;;6236565;28;20139;-62
2022/03/31 16:36:46;;;;;;;28.17;17.15;;;;;;;;;;6246356;28;20087;-63
2022/03/31 16:39:48;;;;;;;32.90;15.40;;;;;;;;;;6239944;28;20136;-62
2022/03/31 16:42:48;;;;;;;23.90;12.82;;;;;;;;;;6250723;28;20056;-62
2022/03/31 16:45:53;;;;;;;26.45;13.25;;;;;;;;;;6240061;28;20507;-62
2022/03/31 16:48:53;;;;;;;28.42;13.95;;;;;;;;;;6244708;28;20412;-63
2022/03/31 16:51:54;;;;;;;27.33;14.63;;;;;;;;;;6245845;28;20199;-62
2022/03/31 16:54:55;;;;;;;27.17;14.20;;;;;;;;;;6261724;28;20102;-62
2022/03/31 16:57:55;;;;;;;31.00;16.15;;;;;;;;;;6246644;28;20103;-62
2022/03/31 17:00:56;;;;;;;40.17;16.95;;;;;;;;;;6245444;28;20040;-62
2022/03/31 17:03:57;;;;;;;62.20;24.23;;;;;;;;;;6239712;28;20523;-62
2022/03/31 17:06:58;;;;;;;41.30;19.80;;;;;;;;;;6244860;28;20060;-62
2022/03/31 17:09:59;;;;;;;32.42;16.55;;;;;;;;;;6250555;28;20048;-62
2022/03/31 17:13:00;;;;;;;33.20;15.57;;;;;;;;;;6243896;28;20045;-61
2022/03/31 17:16:02;;;;;;;34.80;15.68;;;;;;;;;;6245304;28;20056;-64
2022/03/31 17:19:03;;;;;;;29.70;14.43;;;;;;;;;;6246732;28;20807;-63
2022/03/31 17:22:04;;;;;;;25.45;14.73;;;;;;;;;;6243052;28;20057;-62
2022/03/31 17:25:06;;;;;;;28.33;14.38;;;;;;;;;;6247421;28;20203;-62
2022/03/31 17:28:09;;;;;;;31.65;14.45;;;;;;;;;;6246868;28;20179;-61
2022/03/31 17:31:11;;;;;;;30.75;14.75;;;;;;;;;;6245858;28;20065;-62
2022/03/31 17:34:13;;;;;;;24.83;12.68;;;;;;;;;;6240795;28;20054;-62
2022/03/31 17:37:13;;;;;;;25.00;12.15;;;;;;;;;;6243092;28;20056;-62
2022/03/31 17:40:15;;;;;;;28.25;14.32;;;;;;;;;;6241034;28;20742;-61
2022/03/31 17:43:21;;;;;;;28.00;13.63;;;;;;;;;;6238163;28;20053;-61
2022/03/31 17:46:22;;;;;;;26.00;13.27;;;;;;;;;;6243660;28;20107;-60
2022/03/31 17:49:22;;;;;;;28.73;14.30;;;;;;;;;;6240117;28;20060;-62